Aviation Digital Data Service (ADDS)

Output produced by METARs form (1214 UTC 08 February 2016)
found at http://aviationweather.gov/adds/metars/
 
KMSS 081121Z 0812/0912 07014G19KT P6SM BKN070 
     FM082300 07011G16KT P6SM VCSH OVC040 
     FM090300 07010KT P6SM -SN OVC030